Time;durP1;ratioP1;P1;durP2;ratioP2;P2;SDS_P1;SDS_P2;PMS_P1;PMS_P2;Temp;Humidity;BMP_temperature;BMP_pressure;BME280_temperature;BME280_humidity;BME280_pressure;Samples;Min_cycle;Max_cycle;Signal;HPM_P1;HPM_P2
2021/01/16 00:01:05;;;;;;;13.07;8.10;;;2.00;1.00;;;;;;5074302;28;20191;-67
2021/01/16 00:03:31;;;;;;;15.68;8.65;;;2.40;1.00;;;;;;5074449;28;20526;-67
2021/01/16 00:05:59;;;;;;;14.90;10.07;;;2.30;1.00;;;;;;5074167;28;20199;-68
2021/01/16 00:08:25;;;;;;;13.20;8.32;;;2.10;1.00;;;;;;5074189;28;20588;-67
2021/01/16 00:10:58;;;;;;;16.63;9.63;;;2.30;1.00;;;;;;5074067;28;20191;-67
2021/01/16 00:13:25;;;;;;;14.05;8.18;;;2.10;1.00;;;;;;5073964;28;20379;-67
2021/01/16 00:15:52;;;;;;;18.38;10.35;;;2.20;1.00;;;;;;5073800;28;20176;-68
2021/01/16 00:18:19;;;;;;;13.27;8.70;;;2.00;1.00;;;;;;5074021;28;20168;-67
2021/01/16 00:20:49;;;;;;;13.50;8.63;;;2.10;1.00;;;;;;5073887;28;20184;-67
2021/01/16 00:23:15;;;;;;;13.40;9.32;;;2.40;1.00;;;;;;5073897;28;20203;-66
2021/01/16 00:25:41;;;;;;;14.30;9.00;;;2.50;1.00;;;;;;5073991;28;20223;-67
2021/01/16 00:28:13;;;;;;;12.43;7.70;;;2.60;1.00;;;;;;5073867;28;20532;-67
2021/01/16 00:30:39;;;;;;;14.95;8.70;;;2.40;1.00;;;;;;5074020;28;20187;-67
2021/01/16 00:33:21;;;;;;;17.33;9.00;;;2.20;1.00;;;;;;5073726;28;20168;-67
2021/01/16 00:35:47;;;;;;;14.75;10.55;;;2.30;1.00;;;;;;5073615;28;20255;-67
2021/01/16 00:38:13;;;;;;;15.05;8.80;;;2.10;1.00;;;;;;5073922;28;20180;-67
2021/01/16 00:40:39;;;;;;;14.70;8.90;;;2.10;1.00;;;;;;5073530;28;20196;-67
2021/01/16 00:43:07;;;;;;;17.37;11.53;;;2.40;1.00;;;;;;5073606;28;20385;-67
2021/01/16 00:45:33;;;;;;;19.63;9.35;;;2.10;1.00;;;;;;5073776;28;20188;-67
2021/01/16 00:48:13;;;;;;;16.37;10.20;;;1.90;1.00;;;;;;5073514;28;20267;-67
2021/01/16 00:50:39;;;;;;;16.30;8.88;;;2.10;1.00;;;;;;5073349;28;20180;-67
2021/01/16 00:53:05;;;;;;;13.77;8.60;;;2.40;1.00;;;;;;5073393;28;20186;-67
2021/01/16 00:55:31;;;;;;;14.80;8.00;;;2.40;1.00;;;;;;5073364;28;20168;-67
2021/01/16 00:57:56;;;;;;;15.40;8.50;;;2.40;1.00;;;;;;5073591;28;20389;-67
2021/01/16 01:00:27;;;;;;;12.17;8.20;;;2.60;1.00;;;;;;5073254;28;20250;-67
2021/01/16 01:02:53;;;;;;;13.23;9.40;;;2.90;1.00;;;;;;5073270;28;20152;-67
2021/01/16 01:05:23;;;;;;;18.27;10.30;;;2.90;1.00;;;;;;5073187;28;20196;-67
2021/01/16 01:07:50;;;;;;;16.33;9.25;;;2.40;1.00;;;;;;5073432;28;20456;-67
2021/01/16 01:10:24;;;;;;;15.73;10.18;;;2.60;1.00;;;;;;5073104;28;20680;-67
2021/01/16 01:12:50;;;;;;;11.77;8.25;;;2.20;1.00;;;;;;5073739;28;20160;-67
2021/01/16 01:15:16;;;;;;;9.43;7.17;;;2.70;1.00;;;;;;5073060;28;20662;-66
2021/01/16 01:17:41;;;;;;;14.37;9.30;;;2.70;1.00;;;;;;5073094;28;20650;-67
2021/01/16 01:20:08;;;;;;;14.60;9.07;;;2.40;1.00;;;;;;5073029;28;20219;-67
2021/01/16 01:22:35;;;;;;;14.23;8.98;;;2.20;1.00;;;;;;5073008;28;20183;-67
2021/01/16 01:25:00;;;;;;;15.85;9.07;;;2.50;1.00;;;;;;5073192;28;20755;-67
2021/01/16 01:27:26;;;;;;;15.63;8.93;;;2.50;1.00;;;;;;5072653;28;20200;-67
2021/01/16 01:29:51;;;;;;;17.00;9.40;;;2.60;1.00;;;;;;5072963;28;20216;-67
2021/01/16 01:32:17;;;;;;;17.30;8.97;;;2.80;1.00;;;;;;5072997;28;20255;-65
2021/01/16 01:34:43;;;;;;;14.60;9.30;;;2.90;1.00;;;;;;5073097;28;20222;-67
2021/01/16 01:37:08;;;;;;;15.27;9.90;;;2.70;1.00;;;;;;5072898;28;20172;-67
2021/01/16 01:39:34;;;;;;;12.30;8.40;;;2.70;1.00;;;;;;5072801;28;20263;-67
2021/01/16 01:41:59;;;;;;;16.60;10.20;;;2.60;1.00;;;;;;5073125;28;20168;-68
2021/01/16 01:44:25;;;;;;;11.47;8.27;;;2.50;1.00;;;;;;5072779;28;20313;-67
2021/01/16 01:46:52;;;;;;;16.00;9.90;;;2.40;1.00;;;;;;5072833;28;20160;-67
2021/01/16 01:49:17;;;;;;;12.43;8.50;;;2.60;1.00;;;;;;5072623;28;20211;-67
2021/01/16 01:51:44;;;;;;;14.67;8.10;;;2.80;1.00;;;;;;5072736;28;20172;-67
2021/01/16 01:54:10;;;;;;;13.35;8.75;;;2.60;1.00;;;;;;5072730;28;20192;-67
2021/01/16 01:56:38;;;;;;;14.45;8.80;;;2.20;1.00;;;;;;5072969;28;20195;-67
2021/01/16 01:59:06;;;;;;;17.27;8.23;;;2.00;1.00;;;;;;5072733;28;20246;-67
2021/01/16 02:01:38;;;;;;;15.15;9.75;;;1.90;1.00;;;;;;5072702;28;20168;-68
2021/01/16 02:04:05;;;;;;;15.35;9.82;;;2.00;1.00;;;;;;5073019;28;20160;-67
2021/01/16 02:06:30;;;;;;;13.90;8.68;;;2.10;1.00;;;;;;5072571;28;20196;-67
2021/01/16 02:08:56;;;;;;;14.23;8.13;;;2.30;1.00;;;;;;5072601;28;20164;-67
2021/01/16 02:11:23;;;;;;;15.27;9.57;;;2.60;1.00;;;;;;5072731;28;20290;-67
2021/01/16 02:13:48;;;;;;;14.18;9.25;;;2.30;1.00;;;;;;5072806;28;20381;-67
2021/01/16 02:16:47;;;;;;;15.70;9.47;;;2.30;1.00;;;;;;5072867;28;20187;-67
2021/01/16 02:19:13;;;;;;;13.95;8.73;;;2.30;1.00;;;;;;5073031;28;20231;-67
2021/01/16 02:21:43;;;;;;;13.20;9.23;;;2.60;1.00;;;;;;5073052;28;20203;-67
2021/01/16 02:24:10;;;;;;;12.52;9.02;;;2.50;1.00;;;;;;5072895;28;20398;-67
2021/01/16 02:27:09;;;;;;;14.55;9.95;;;2.10;1.00;;;;;;5072255;28;20698;-67
2021/01/16 02:29:35;;;;;;;15.68;9.32;;;2.40;1.00;;;;;;5072385;28;20244;-68
2021/01/16 02:32:06;;;;;;;21.50;8.73;;;2.10;1.00;;;;;;5072601;28;20250;-67
2021/01/16 02:34:37;;;;;;;12.85;8.55;;;2.20;1.00;;;;;;5072376;28;20160;-68
2021/01/16 02:37:08;;;;;;;17.40;8.02;;;2.40;1.00;;;;;;5072649;28;20187;-67
2021/01/16 02:39:51;;;;;;;16.63;8.63;;;2.20;1.00;;;;;;5075331;28;20240;-67
2021/01/16 02:42:51;;;;;;;12.95;8.10;;;2.20;1.00;;;;;;5075937;28;20209;-67
2021/01/16 02:45:22;;;;;;;13.32;9.05;;;2.40;1.00;;;;;;5075804;28;20180;-67
2021/01/16 02:47:53;;;;;;;14.35;8.82;;;2.20;1.00;;;;;;5075788;28;20631;-67
2021/01/16 02:50:21;;;;;;;13.52;8.95;;;2.40;1.00;;;;;;5075792;28;20188;-67
2021/01/16 02:52:48;;;;;;;16.67;10.07;;;2.20;1.00;;;;;;5075946;28;20189;-67
2021/01/16 02:55:18;;;;;;;12.55;8.73;;;1.90;1.00;;;;;;5075948;28;20168;-67
2021/01/16 02:57:44;;;;;;;13.25;8.15;;;2.10;1.00;;;;;;5075575;28;20226;-67
2021/01/16 03:00:19;;;;;;;12.07;8.18;;;2.20;1.00;;;;;;5075508;28;20181;-67
2021/01/16 03:02:45;;;;;;;13.07;7.65;;;2.40;1.00;;;;;;5074228;28;20160;-67
2021/01/16 03:05:10;;;;;;;14.83;9.00;;;2.30;1.00;;;;;;5075328;28;20200;-68
2021/01/16 03:07:36;;;;;;;20.13;9.37;;;2.10;1.00;;;;;;5075348;28;20251;-67
2021/01/16 03:10:08;;;;;;;13.38;9.43;;;2.20;1.00;;;;;;5075354;28;20267;-67
2021/01/16 03:12:34;;;;;;;13.90;8.38;;;2.40;1.00;;;;;;5075369;28;20167;-66
2021/01/16 03:15:10;;;;;;;16.45;8.38;;;2.40;1.00;;;;;;5075272;28;20637;-67
2021/01/16 03:17:52;;;;;;;11.68;7.45;;;2.20;1.00;;;;;;5075238;28;20659;-67
2021/01/16 03:20:19;;;;;;;9.43;7.05;;;2.30;1.00;;;;;;5075207;28;20188;-67
2021/01/16 03:22:45;;;;;;;35.05;11.57;;;2.40;1.00;;;;;;5075094;28;20165;-67
2021/01/16 03:25:11;;;;;;;12.90;8.17;;;2.40;1.00;;;;;;5074955;28;20695;-67
2021/01/16 03:27:37;;;;;;;18.13;9.32;;;2.50;1.00;;;;;;5074870;28;20402;-67
2021/01/16 03:30:03;;;;;;;17.60;9.10;;;2.30;1.00;;;;;;5074888;28;20196;-67
2021/01/16 03:32:29;;;;;;;14.07;8.35;;;2.20;1.00;;;;;;5074823;28;20168;-66
2021/01/16 03:34:54;;;;;;;9.93;7.53;;;2.20;1.00;;;;;;5074736;28;20164;-67
2021/01/16 03:37:21;;;;;;;15.83;9.17;;;2.40;1.00;;;;;;5074969;28;20168;-66
2021/01/16 03:39:46;;;;;;;14.30;9.43;;;2.40;1.00;;;;;;5074818;28;20280;-67
2021/01/16 03:42:12;;;;;;;14.27;9.00;;;2.40;1.00;;;;;;5075175;28;20199;-67
2021/01/16 03:44:38;;;;;;;15.20;8.80;;;2.40;1.00;;;;;;5074733;28;20168;-66
2021/01/16 03:47:04;;;;;;;16.53;8.13;;;2.40;1.00;;;;;;5073397;28;20230;-65
2021/01/16 03:49:30;;;;;;;13.20;8.13;;;2.30;1.00;;;;;;5073932;28;20438;-67
2021/01/16 03:51:56;;;;;;;12.03;7.60;;;2.30;1.00;;;;;;5074420;28;20175;-67
2021/01/16 03:54:21;;;;;;;13.40;9.00;;;2.40;1.00;;;;;;5074464;28;20497;-67
2021/01/16 03:56:47;;;;;;;15.20;7.80;;;2.10;1.00;;;;;;5074622;28;20245;-67
2021/01/16 03:59:13;;;;;;;16.37;9.33;;;2.20;1.00;;;;;;5074543;28;20237;-67
2021/01/16 04:01:39;;;;;;;13.00;7.73;;;2.00;1.00;;;;;;5074302;28;20164;-67
2021/01/16 04:04:05;;;;;;;11.20;7.50;;;2.10;1.00;;;;;;5074572;28;20199;-67
2021/01/16 04:06:30;;;;;;;16.27;9.50;;;2.20;1.00;;;;;;5074220;28;20231;-67
2021/01/16 04:08:56;;;;;;;17.27;9.37;;;2.40;1.00;;;;;;5074076;28;20175;-67
2021/01/16 04:11:22;;;;;;;16.02;10.02;;;2.40;1.00;;;;;;5074112;28;20597;-67
2021/01/16 04:13:48;;;;;;;14.77;8.77;;;2.60;1.00;;;;;;5074116;28;20171;-67
2021/01/16 04:16:13;;;;;;;18.93;11.10;;;2.40;1.00;;;;;;5074853;28;20252;-67
2021/01/16 04:18:39;;;;;;;18.37;9.97;;;2.30;1.00;;;;;;5074332;28;20172;-67
2021/01/16 04:21:05;;;;;;;17.20;9.60;;;2.30;1.00;;;;;;5074065;28;20188;-67
2021/01/16 04:23:31;;;;;;;14.77;8.60;;;2.30;1.00;;;;;;5074284;28;20198;-67
2021/01/16 04:25:57;;;;;;;14.52;9.35;;;2.50;1.00;;;;;;5074019;28;20202;-66
2021/01/16 04:28:23;;;;;;;18.40;9.65;;;2.40;1.00;;;;;;5073907;28;20665;-67
2021/01/16 04:30:49;;;;;;;15.53;8.87;;;2.10;1.00;;;;;;5073652;28;20195;-66
2021/01/16 04:33:15;;;;;;;15.90;9.70;;;2.20;1.00;;;;;;5073949;28;20381;-67
2021/01/16 04:35:41;;;;;;;14.50;9.25;;;2.30;1.00;;;;;;5073641;28;20218;-67
2021/01/16 04:38:06;;;;;;;16.43;9.20;;;2.20;1.00;;;;;;5073619;28;20165;-67
2021/01/16 04:40:32;;;;;;;13.93;8.90;;;1.90;1.00;;;;;;5073494;28;20188;-67
2021/01/16 04:43:01;;;;;;;13.90;8.03;;;2.00;1.00;;;;;;5073622;28;20168;-67
2021/01/16 04:45:27;;;;;;;13.10;8.05;;;2.00;1.00;;;;;;5073354;28;20423;-67
2021/01/16 04:47:56;;;;;;;17.63;9.37;;;2.10;1.00;;;;;;5073310;28;20665;-67
2021/01/16 04:50:26;;;;;;;15.23;8.80;;;1.80;1.00;;;;;;5073228;28;20401;-66
2021/01/16 04:52:59;;;;;;;13.93;8.65;;;1.80;1.00;;;;;;5073353;28;20168;-67
2021/01/16 04:55:26;;;;;;;16.85;9.70;;;2.10;1.00;;;;;;5072086;28;20179;-67
2021/01/16 04:57:52;;;;;;;10.85;7.50;;;2.00;1.00;;;;;;5073290;28;20168;-67
2021/01/16 05:00:18;;;;;;;15.73;8.23;;;2.00;1.00;;;;;;5073436;28;20192;-67
2021/01/16 05:02:43;;;;;;;21.30;9.63;;;1.90;1.00;;;;;;5072627;28;20229;-67
2021/01/16 05:05:10;;;;;;;14.67;8.83;;;1.90;1.00;;;;;;5073082;28;20537;-67
2021/01/16 05:07:36;;;;;;;12.77;8.82;;;2.00;1.00;;;;;;5073154;28;20167;-67
2021/01/16 05:10:05;;;;;;;16.08;10.38;;;2.30;1.00;;;;;;5073016;28;20220;-67
2021/01/16 05:12:30;;;;;;;14.18;9.30;;;2.50;1.00;;;;;;5073031;28;20164;-67
2021/01/16 05:15:07;;;;;;;16.60;8.27;;;2.10;1.00;;;;;;5073043;28;20164;-67
2021/01/16 05:17:40;;;;;;;14.02;9.75;;;2.30;1.00;;;;;;5072942;28;20211;-67
2021/01/16 05:20:08;;;;;;;12.68;8.52;;;2.50;1.00;;;;;;5073792;28;20183;-67
2021/01/16 05:22:33;;;;;;;11.80;8.73;;;2.40;1.00;;;;;;5073468;28;20168;-67
2021/01/16 05:25:05;;;;;;;15.17;9.07;;;2.50;1.00;;;;;;5072916;28;20214;-67
2021/01/16 05:27:38;;;;;;;16.20;8.70;;;2.50;1.00;;;;;;5072918;28;20185;-67
2021/01/16 05:30:09;;;;;;;14.43;9.13;;;2.50;1.00;;;;;;5072795;28;20195;-67
2021/01/16 05:32:35;;;;;;;15.65;8.77;;;2.50;1.00;;;;;;5072903;28;20172;-67
2021/01/16 05:35:14;;;;;;;15.80;8.45;;;2.50;1.00;;;;;;5073093;28;20164;-67
2021/01/16 05:37:41;;;;;;;12.38;9.43;;;2.50;1.00;;;;;;5072891;28;20160;-67
2021/01/16 05:40:09;;;;;;;14.30;8.10;;;2.50;1.00;;;;;;5072683;28;20184;-67
2021/01/16 05:42:34;;;;;;;15.23;9.65;;;2.40;1.00;;;;;;5073001;28;20529;-66
2021/01/16 05:45:01;;;;;;;16.40;10.20;;;2.40;1.00;;;;;;5072768;28;20188;-67
2021/01/16 05:47:28;;;;;;;20.08;9.02;;;2.20;1.00;;;;;;5072826;28;20241;-67
2021/01/16 05:49:54;;;;;;;16.77;9.85;;;2.50;1.00;;;;;;5071118;28;20192;-67
2021/01/16 05:52:19;;;;;;;19.97;9.97;;;2.50;1.00;;;;;;5072662;28;20659;-67
2021/01/16 05:54:45;;;;;;;16.90;10.60;;;2.70;1.00;;;;;;5071646;28;20377;-67
2021/01/16 05:57:16;;;;;;;15.27;9.90;;;2.70;1.00;;;;;;5072870;28;20632;-68
2021/01/16 05:59:45;;;;;;;14.20;9.35;;;2.70;1.00;;;;;;5072592;28;20191;-67
2021/01/16 06:02:13;;;;;;;18.63;9.48;;;2.60;1.00;;;;;;5072592;28;20540;-67
2021/01/16 06:04:46;;;;;;;15.73;9.27;;;2.70;1.00;;;;;;5072514;28;20194;-67
2021/01/16 06:07:12;;;;;;;19.27;9.90;;;2.60;1.00;;;;;;5072627;28;20156;-67
2021/01/16 06:09:38;;;;;;;14.38;9.23;;;2.50;1.00;;;;;;5072423;28;20191;-67
2021/01/16 06:12:06;;;;;;;16.17;9.40;;;2.60;1.00;;;;;;5072795;28;20247;-67
2021/01/16 06:14:45;;;;;;;23.48;9.88;;;2.70;1.00;;;;;;5075567;28;20402;-67
2021/01/16 06:17:18;;;;;;;16.75;9.80;;;2.70;1.00;;;;;;5076345;28;20180;-67
2021/01/16 06:19:49;;;;;;;15.15;9.02;;;2.70;1.00;;;;;;5076347;28;20203;-67
2021/01/16 06:22:17;;;;;;;22.60;9.15;;;2.70;1.00;;;;;;5076489;28;20164;-67
2021/01/16 06:24:48;;;;;;;15.70;9.93;;;2.30;1.00;;;;;;5076060;28;20164;-66
2021/01/16 06:27:23;;;;;;;12.88;9.00;;;2.50;1.00;;;;;;5076034;28;20274;-66
2021/01/16 06:30:00;;;;;;;17.10;10.13;;;2.50;1.00;;;;;;5076030;28;20614;-67
2021/01/16 06:32:27;;;;;;;15.07;8.88;;;2.30;1.00;;;;;;5075983;28;20168;-67
2021/01/16 06:35:10;;;;;;;18.83;10.50;;;2.40;1.00;;;;;;5076339;28;20255;-67
2021/01/16 06:37:51;;;;;;;23.73;10.50;;;2.50;1.00;;;;;;5075965;28;20172;-67
2021/01/16 06:40:29;;;;;;;17.65;9.25;;;2.30;1.00;;;;;;5075926;28;20199;-67
2021/01/16 06:42:58;;;;;;;16.92;9.80;;;2.50;1.00;;;;;;5076112;28;20163;-67
2021/01/16 06:45:26;;;;;;;20.95;10.85;;;2.40;1.00;;;;;;5075720;28;20202;-67
2021/01/16 06:47:57;;;;;;;14.70;9.43;;;2.20;1.00;;;;;;5075647;28;20246;-66
2021/01/16 06:50:23;;;;;;;16.35;10.48;;;2.20;1.00;;;;;;5074372;28;20291;-67
2021/01/16 06:52:49;;;;;;;18.67;10.02;;;2.50;1.00;;;;;;5075662;28;20247;-66
2021/01/16 06:55:19;;;;;;;15.27;10.13;;;2.50;1.00;;;;;;5075739;28;20661;-67
2021/01/16 06:57:46;;;;;;;16.75;8.60;;;2.30;1.00;;;;;;5075555;28;20532;-67
2021/01/16 07:00:13;;;;;;;16.50;9.73;;;2.40;1.00;;;;;;5075552;28;20734;-67
2021/01/16 07:02:40;;;;;;;16.30;9.43;;;2.50;1.00;;;;;;5075791;28;20172;-67
2021/01/16 07:05:07;;;;;;;16.08;10.23;;;2.50;1.00;;;;;;5075678;28;20728;-67
2021/01/16 07:07:34;;;;;;;16.05;10.93;;;2.40;1.00;;;;;;5075204;28;20179;-67
2021/01/16 07:10:07;;;;;;;18.80;9.55;;;2.10;1.00;;;;;;5075355;28;20211;-66
2021/01/16 07:12:33;;;;;;;12.93;10.48;;;2.00;1.00;;;;;;5075269;28;20169;-67
2021/01/16 07:14:59;;;;;;;16.13;9.15;;;2.20;1.00;;;;;;5075279;28;20161;-67
2021/01/16 07:17:26;;;;;;;14.10;8.90;;;2.30;1.00;;;;;;5073976;28;20182;-66
2021/01/16 07:19:55;;;;;;;16.60;10.00;;;2.30;1.00;;;;;;5075168;28;20397;-67
2021/01/16 07:22:26;;;;;;;20.70;10.82;;;2.20;1.00;;;;;;5075123;28;20172;-67
2021/01/16 07:24:53;;;;;;;16.83;10.82;;;2.30;1.00;;;;;;5074115;28;20740;-67
2021/01/16 07:27:20;;;;;;;15.75;8.40;;;2.30;1.00;;;;;;5074989;28;20282;-67
2021/01/16 07:29:45;;;;;;;16.65;10.98;;;2.30;1.00;;;;;;5074940;28;20588;-67
2021/01/16 07:32:14;;;;;;;18.73;10.00;;;2.40;1.00;;;;;;5075284;28;20219;-67
2021/01/16 07:34:46;;;;;;;15.07;9.30;;;2.50;1.00;;;;;;5075015;28;20165;-67
2021/01/16 07:37:13;;;;;;;17.73;10.25;;;2.40;1.00;;;;;;5075202;28;20731;-67
2021/01/16 07:39:41;;;;;;;20.02;11.65;;;2.40;1.00;;;;;;5075062;28;20188;-67
2021/01/16 07:42:15;;;;;;;19.65;11.23;;;2.40;1.00;;;;;;5074990;28;20214;-67
2021/01/16 07:44:45;;;;;;;16.75;9.95;;;2.40;1.00;;;;;;5074645;28;20171;-67
2021/01/16 07:47:22;;;;;;;20.08;10.88;;;2.20;1.00;;;;;;5074698;28;20164;-67
2021/01/16 07:49:57;;;;;;;17.38;10.57;;;2.40;1.00;;;;;;5074540;28;20199;-67
2021/01/16 07:52:25;;;;;;;23.67;10.05;;;2.40;1.00;;;;;;5074622;28;20281;-67
2021/01/16 07:55:04;;;;;;;21.83;11.48;;;2.40;1.00;;;;;;5074839;28;20157;-67
2021/01/16 07:57:31;;;;;;;14.38;9.93;;;2.20;1.00;;;;;;5074557;28;20194;-68
2021/01/16 08:00:05;;;;;;;20.10;11.60;;;2.40;1.00;;;;;;5074248;28;20598;-67
2021/01/16 08:02:34;;;;;;;16.92;10.48;;;2.50;1.00;;;;;;5074471;28;20156;-67
2021/01/16 08:05:15;;;;;;;18.83;10.93;;;2.50;1.00;;;;;;5074156;28;20648;-67
2021/01/16 08:08:14;;;;;;;18.77;10.88;;;2.30;1.00;;;;;;5074420;28;20528;-67
2021/01/16 08:10:42;;;;;;;23.27;12.13;;;2.40;1.00;;;;;;5066477;28;20206;-67
2021/01/16 08:13:11;;;;;;;22.08;11.57;;;2.20;1.00;;;;;;5074545;28;20164;-67
2021/01/16 08:15:42;;;;;;;26.40;11.95;;;2.40;1.00;;;;;;5073940;28;20298;-67
2021/01/16 08:18:16;;;;;;;20.50;11.48;;;2.50;1.00;;;;;;5073995;28;20586;-67
2021/01/16 08:20:46;;;;;;;20.17;11.73;;;2.30;1.00;;;;;;5072552;28;20300;-67
2021/01/16 08:23:20;;;;;;;18.50;11.23;;;2.40;1.00;;;;;;5073981;28;20190;-67
2021/01/16 08:25:46;;;;;;;22.00;12.20;;;2.40;1.00;;;;;;5072568;28;20648;-67
2021/01/16 08:28:22;;;;;;;21.60;12.20;;;2.50;1.00;;;;;;5073867;28;20168;-67
2021/01/16 08:30:47;;;;;;;22.40;12.25;;;2.50;1.00;;;;;;5073757;28;20188;-67
2021/01/16 08:33:13;;;;;;;22.13;11.43;;;2.30;1.00;;;;;;5073943;28;20624;-67
2021/01/16 08:35:44;;;;;;;18.07;11.07;;;2.40;1.00;;;;;;5073506;28;20172;-66
2021/01/16 08:38:18;;;;;;;21.63;11.73;;;2.30;1.00;;;;;;5073662;28;20168;-67
2021/01/16 08:40:54;;;;;;;21.35;11.77;;;2.20;1.00;;;;;;5073388;28;20187;-67
2021/01/16 08:43:34;;;;;;;27.60;15.07;;;2.60;1.00;;;;;;5073708;28;20174;-67
2021/01/16 08:46:18;;;;;;;20.27;11.00;;;2.60;1.00;;;;;;5073212;28;20191;-66
2021/01/16 08:49:03;;;;;;;20.35;11.55;;;2.60;1.00;;;;;;5073197;28;20214;-67
2021/01/16 08:51:30;;;;;;;24.83;12.23;;;2.50;1.00;;;;;;5073135;28;20157;-67
2021/01/16 08:54:18;;;;;;;28.05;12.68;;;2.50;1.00;;;;;;5073121;28;20247;-66
2021/01/16 08:57:07;;;;;;;23.33;12.30;;;2.50;1.00;;;;;;5073178;28;20167;-67
2021/01/16 08:59:34;;;;;;;18.52;11.95;;;2.40;1.00;;;;;;5072862;28;20275;-67
2021/01/16 09:02:11;;;;;;;20.42;11.48;;;2.60;1.00;;;;;;5073082;28;20199;-66
2021/01/16 09:04:41;;;;;;;20.90;11.40;;;2.50;1.00;;;;;;5073288;28;20164;-67
2021/01/16 09:07:27;;;;;;;21.98;12.40;;;2.60;1.00;;;;;;5073431;28;20487;-67
2021/01/16 09:10:00;;;;;;;17.20;10.73;;;2.60;1.00;;;;;;5073339;28;20187;-67
2021/01/16 09:12:33;;;;;;;24.38;12.68;;;2.60;1.00;;;;;;5073102;28;20149;-67
2021/01/16 09:15:22;;;;;;;26.60;10.93;;;3.10;1.00;;;;;;5073405;28;20237;-67
2021/01/16 09:17:59;;;;;;;17.23;10.80;;;3.10;1.00;;;;;;5073149;28;20544;-68
2021/01/16 09:20:25;;;;;;;16.67;10.10;;;3.10;1.00;;;;;;5072827;28;20255;-67
2021/01/16 09:22:51;;;;;;;22.90;13.20;;;3.00;1.00;;;;;;5072568;28;20176;-67
2021/01/16 09:25:25;;;;;;;18.70;12.53;;;2.80;1.00;;;;;;5072973;28;20457;-67
2021/01/16 09:27:52;;;;;;;20.23;11.77;;;3.00;1.00;;;;;;5073030;28;20175;-67
2021/01/16 09:30:23;;;;;;;20.30;12.02;;;2.80;1.00;;;;;;5072576;28;20184;-69
2021/01/16 09:32:50;;;;;;;24.45;14.05;;;3.00;1.00;;;;;;5072629;28;20239;-67
2021/01/16 09:35:45;;;;;;;20.35;11.20;;;3.20;1.00;;;;;;5072665;28;20518;-67
2021/01/16 09:38:21;;;;;;;21.17;12.35;;;3.40;1.00;;;;;;5063892;28;20211;-68
2021/01/16 09:40:48;;;;;;;18.75;13.73;;;3.30;1.00;;;;;;5072625;28;20241;-68
2021/01/16 09:43:22;;;;;;;18.27;10.82;;;3.30;1.00;;;;;;5072899;28;20559;-67
2021/01/16 09:45:57;;;;;;;26.85;12.35;;;3.30;1.00;;;;;;5072811;28;20719;-68
2021/01/16 09:49:04;;;;;;;20.25;10.98;;;3.20;1.00;;;;;;5073833;28;20191;-67
2021/01/16 09:51:29;;;;;;;22.85;13.50;;;3.10;1.00;;;;;;5074741;28;20222;-68
2021/01/16 09:54:08;;;;;;;26.67;13.07;;;3.20;1.00;;;;;;5076777;28;20160;-68
2021/01/16 09:56:45;;;;;;;20.75;10.55;;;3.30;1.00;;;;;;5076923;28;20666;-67
2021/01/16 09:59:23;;;;;;;25.13;13.07;;;3.20;1.00;;;;;;5075504;28;20684;-68
2021/01/16 10:02:12;;;;;;;20.48;11.95;;;3.20;1.00;;;;;;5076149;28;20156;-67
2021/01/16 10:04:39;;;;;;;19.65;11.00;;;3.20;1.00;;;;;;5076378;28;20180;-68
2021/01/16 10:07:13;;;;;;;20.88;11.68;;;3.30;1.00;;;;;;5076397;28;20160;-67
2021/01/16 10:10:10;;;;;;;22.55;13.05;;;3.30;1.00;;;;;;5076369;28;20184;-67
2021/01/16 10:12:40;;;;;;;20.88;12.70;;;3.30;1.00;;;;;;5076245;28;20159;-68
2021/01/16 10:15:19;;;;;;;20.20;10.45;;;3.20;1.00;;;;;;5076159;28;20194;-67
2021/01/16 10:17:46;;;;;;;17.48;10.35;;;3.40;1.00;;;;;;5075937;28;20168;-67
2021/01/16 10:20:14;;;;;;;18.83;11.60;;;3.60;1.00;;;;;;5075875;28;20787;-67
2021/01/16 10:22:53;;;;;;;21.40;11.65;;;3.70;1.00;;;;;;5076027;28;20702;-67
2021/01/16 10:25:23;;;;;;;15.80;9.82;;;3.50;1.00;;;;;;5076081;28;20180;-67
2021/01/16 10:27:52;;;;;;;23.05;12.05;;;3.50;1.00;;;;;;5075812;28;20183;-67
2021/01/16 10:30:22;;;;;;;19.23;10.98;;;3.60;1.00;;;;;;5075667;28;20245;-67
2021/01/16 10:32:50;;;;;;;15.93;9.60;;;3.60;1.00;;;;;;5075964;28;20174;-67
2021/01/16 10:35:21;;;;;;;17.23;11.15;;;3.50;1.00;;;;;;5076212;28;20231;-67
2021/01/16 10:37:47;;;;;;;20.08;12.50;;;3.40;1.00;;;;;;5076238;28;20602;-67
2021/01/16 10:40:14;;;;;;;18.20;11.23;;;3.50;1.00;;;;;;5075750;28;20302;-68
2021/01/16 10:42:41;;;;;;;20.17;10.43;;;3.40;1.00;;;;;;5075873;28;20398;-68
2021/01/16 10:45:07;;;;;;;18.90;11.77;;;3.40;1.00;;;;;;5075745;28;20188;-68
2021/01/16 10:47:36;;;;;;;23.58;11.27;;;3.40;1.00;;;;;;5075244;28;20199;-67
2021/01/16 10:50:12;;;;;;;17.70;11.73;;;3.40;1.00;;;;;;5075325;28;20186;-67
2021/01/16 10:52:39;;;;;;;18.60;11.82;;;3.40;1.00;;;;;;5075532;28;20563;-67
2021/01/16 10:55:07;;;;;;;18.83;11.88;;;3.20;1.00;;;;;;5075310;28;20537;-67
2021/01/16 10:58:02;;;;;;;21.10;12.43;;;3.20;1.00;;;;;;5075245;28;20172;-68
2021/01/16 11:00:42;;;;;;;20.27;12.00;;;3.30;1.00;;;;;;5072512;28;20202;-68
2021/01/16 11:03:17;;;;;;;24.05;13.05;;;3.40;1.00;;;;;;5075497;28;20479;-67
2021/01/16 11:05:48;;;;;;;18.23;11.48;;;3.30;1.00;;;;;;5074935;28;20219;-67
2021/01/16 11:08:25;;;;;;;22.05;12.50;;;3.30;1.00;;;;;;5075057;28;20187;-67
2021/01/16 11:10:51;;;;;;;19.30;11.63;;;3.30;1.00;;;;;;5074943;28;20661;-67
2021/01/16 11:13:24;;;;;;;22.50;12.57;;;3.00;1.00;;;;;;5075252;28;20200;-67
2021/01/16 11:15:54;;;;;;;20.88;13.23;;;3.10;1.00;;;;;;5073573;28;20377;-67
2021/01/16 11:18:38;;;;;;;23.88;12.10;;;3.10;1.00;;;;;;5075004;28;20220;-68
2021/01/16 11:21:06;;;;;;;27.08;11.57;;;3.10;1.00;;;;;;5074645;28;20184;-67
2021/01/16 11:23:47;;;;;;;19.60;11.68;;;3.20;1.00;;;;;;5073609;28;20676;-67
2021/01/16 11:26:15;;;;;;;19.88;11.57;;;3.00;1.00;;;;;;5075226;28;20195;-67
2021/01/16 11:28:56;;;;;;;19.13;10.95;;;3.00;1.00;;;;;;5074687;28;20195;-67
2021/01/16 11:31:25;;;;;;;19.17;11.27;;;3.10;1.00;;;;;;5074720;28;20267;-68
2021/01/16 11:34:09;;;;;;;20.20;12.00;;;3.20;1.00;;;;;;5074803;28;20164;-67
2021/01/16 11:36:51;;;;;;;22.27;14.23;;;3.10;1.00;;;;;;5074857;28;20165;-68
2021/01/16 11:39:42;;;;;;;21.35;12.00;;;3.30;1.00;;;;;;5074675;28;20219;-68
2021/01/16 11:42:08;;;;;;;20.13;11.13;;;3.60;1.00;;;;;;5074502;28;20671;-67
2021/01/16 11:44:59;;;;;;;17.70;10.82;;;3.30;1.00;;;;;;5074425;28;20176;-67
2021/01/16 11:47:26;;;;;;;17.42;10.90;;;3.30;1.00;;;;;;5074327;28;20180;-67
2021/01/16 11:49:52;;;;;;;18.50;10.75;;;3.30;1.00;;;;;;5074515;28;20298;-67
2021/01/16 11:52:18;;;;;;;20.50;10.63;;;3.20;1.00;;;;;;5074306;28;20214;-68
2021/01/16 11:54:44;;;;;;;18.93;10.70;;;3.20;1.00;;;;;;5073997;28;20164;-68
2021/01/16 11:57:12;;;;;;;16.27;10.43;;;3.50;1.00;;;;;;5073599;28;20214;-67
2021/01/16 11:59:40;;;;;;;24.45;13.07;;;3.30;1.00;;;;;;5074241;28;20414;-67
2021/01/16 12:02:13;;;;;;;19.40;10.80;;;3.20;1.00;;;;;;5074263;28;20161;-67
2021/01/16 12:04:46;;;;;;;16.17;10.07;;;3.10;1.00;;;;;;5074094;28;20155;-67
2021/01/16 12:07:13;;;;;;;19.95;10.60;;;3.10;1.00;;;;;;5074026;28;20172;-67
2021/01/16 12:09:43;;;;;;;16.48;10.02;;;3.30;1.00;;;;;;5073964;28;20202;-67
2021/01/16 12:12:10;;;;;;;16.42;8.85;;;3.30;1.00;;;;;;5073584;28;20188;-67
2021/01/16 12:14:37;;;;;;;22.08;10.60;;;3.40;1.00;;;;;;5074041;28;20168;-67
2021/01/16 12:17:06;;;;;;;16.65;10.55;;;3.50;1.00;;;;;;5074140;28;20178;-67
2021/01/16 12:19:34;;;;;;;17.02;9.90;;;3.50;1.00;;;;;;5073757;28;20198;-67
2021/01/16 12:22:05;;;;;;;18.90;10.35;;;3.60;1.00;;;;;;5074059;28;20255;-67
2021/01/16 12:24:31;;;;;;;16.50;9.90;;;3.40;1.00;;;;;;5073423;28;20350;-68
2021/01/16 12:26:59;;;;;;;22.45;9.85;;;3.50;1.00;;;;;;5073438;28;20231;-67
2021/01/16 12:29:35;;;;;;;17.05;9.90;;;3.50;1.00;;;;;;5073459;28;20599;-67
2021/01/16 12:32:05;;;;;;;19.73;10.70;;;3.40;1.00;;;;;;5073537;28;20232;-67
2021/01/16 12:34:31;;;;;;;20.85;11.10;;;3.20;1.00;;;;;;5073546;28;20540;-67
2021/01/16 12:36:57;;;;;;;18.97;11.20;;;3.30;1.00;;;;;;5073652;28;20178;-67
2021/01/16 12:39:23;;;;;;;27.83;14.80;;;3.40;1.00;;;;;;5073547;28;20399;-67
2021/01/16 12:41:50;;;;;;;17.10;10.05;;;3.20;1.00;;;;;;5073365;28;20172;-67
2021/01/16 12:44:22;;;;;;;16.67;11.88;;;3.40;1.00;;;;;;5073255;28;20179;-67
2021/01/16 12:46:49;;;;;;;19.13;11.13;;;3.40;1.00;;;;;;5073303;28;20247;-67
2021/01/16 12:49:15;;;;;;;18.45;10.68;;;3.30;1.00;;;;;;5073126;28;20291;-67
2021/01/16 12:51:43;;;;;;;16.85;10.30;;;3.10;1.00;;;;;;5073303;28;20528;-67
2021/01/16 12:54:18;;;;;;;18.77;10.77;;;3.20;1.00;;;;;;5073971;28;20164;-67
2021/01/16 12:56:49;;;;;;;18.25;10.23;;;3.40;1.00;;;;;;5073090;28;20234;-67
2021/01/16 12:59:19;;;;;;;18.70;11.40;;;3.00;1.00;;;;;;5072824;28;20195;-67
2021/01/16 13:01:49;;;;;;;15.48;10.45;;;3.30;1.00;;;;;;5073488;28;20231;-67
2021/01/16 13:04:15;;;;;;;17.70;10.38;;;3.10;1.00;;;;;;5072868;28;20168;-67
2021/01/16 13:06:41;;;;;;;18.73;10.90;;;3.40;1.00;;;;;;5072986;28;20278;-67
2021/01/16 13:09:08;;;;;;;18.42;10.25;;;3.30;1.00;;;;;;5073030;28;20637;-68